createdAt,value
2017-11-15T06:08:24.407Z,3
2017-11-15T06:17:24.922Z,7
2017-11-15T06:20:55.302Z,10
2017-11-15T06:22:55.332Z,13
2017-11-15T06:25:55.499Z,17
2017-11-15T06:27:55.583Z,20
2017-11-15T06:29:25.803Z,23
2017-11-15T06:30:25.793Z,27
2017-11-15T06:31:25.843Z,30
2017-11-15T06:32:25.904Z,33
2017-11-15T06:34:56.144Z,37
2017-11-15T06:35:26.222Z,40
2017-11-15T06:35:56.153Z,43
2017-11-15T06:36:56.245Z,47
2017-11-15T06:37:26.233Z,53
2017-11-15T06:37:56.315Z,57
2017-11-15T06:38:26.253Z,63
2017-11-15T06:38:56.378Z,67
2017-11-15T06:39:26.336Z,70
2017-11-15T06:39:56.369Z,73
2017-11-15T06:40:26.431Z,77
2017-11-15T06:43:56.622Z,73
2017-11-15T06:45:26.648Z,77
2017-11-15T06:46:26.713Z,83
2017-11-15T06:46:56.795Z,87
2017-11-15T06:47:26.786Z,90
2017-11-15T06:47:56.830Z,93
2017-11-15T06:48:26.829Z,97
2017-11-15T06:48:56.883Z,100
2017-11-15T06:49:26.958Z,103
2017-11-15T06:49:56.962Z,110
2017-11-15T06:50:26.949Z,113
2017-11-15T06:50:56.997Z,120
2017-11-15T06:51:27.009Z,127
2017-11-15T06:51:57.057Z,133
2017-11-15T06:52:27.069Z,137
2017-11-15T06:52:57.193Z,140
2017-11-15T06:53:27.133Z,143
2017-11-15T06:54:27.215Z,147
2017-11-15T06:54:57.275Z,153
2017-11-15T06:55:27.254Z,157
2017-11-15T06:55:57.341Z,163
2017-11-15T06:56:27.322Z,170
2017-11-15T06:56:57.429Z,180
2017-11-15T06:57:27.431Z,187
2017-11-15T06:57:57.552Z,197
2017-11-15T06:58:27.500Z,203
2017-11-15T06:58:57.566Z,210
2017-11-15T06:59:27.600Z,213
2017-11-15T06:59:57.566Z,223
2017-11-15T07:00:27.606Z,233
2017-11-15T07:00:57.697Z,243
2017-11-15T07:01:27.649Z,253
2017-11-15T07:01:57.673Z,263
2017-11-15T07:02:27.687Z,270
2017-11-15T07:02:57.772Z,283
2017-11-15T07:03:27.747Z,297
2017-11-15T07:03:57.794Z,310
2017-11-15T07:04:27.882Z,320
2017-11-15T07:04:57.866Z,330
2017-11-15T07:05:27.877Z,337
2017-11-15T07:05:57.916Z,343
2017-11-15T07:07:27.997Z,333
2017-11-15T07:07:58.048Z,320
2017-11-15T07:08:28.056Z,290
2017-11-15T07:08:58.104Z,257
2017-11-15T07:09:28.280Z,220
2017-11-15T07:09:58.177Z,207
2017-11-15T07:11:28.242Z,200
2017-11-15T07:12:28.354Z,207
2017-11-15T07:12:58.359Z,213
2017-11-15T07:13:58.482Z,217
2017-11-15T07:14:28.554Z,223
2017-11-15T07:14:58.520Z,240
2017-11-15T07:15:28.511Z,273
2017-11-15T07:15:58.559Z,323
2017-11-15T07:16:28.617Z,377
2017-11-15T07:16:58.677Z,423
2017-11-15T07:17:28.665Z,457
2017-11-15T07:17:58.727Z,480
2017-11-15T07:18:28.722Z,493
2017-11-15T07:18:58.854Z,510
2017-11-15T07:19:28.868Z,533
2017-11-15T07:19:58.827Z,560
2017-11-15T07:20:28.824Z,603
2017-11-15T07:20:58.877Z,657
2017-11-15T07:21:28.897Z,713
2017-11-15T07:21:58.984Z,747
2017-11-15T07:22:28.950Z,777
2017-11-15T07:22:59.025Z,800
2017-11-15T07:23:29.024Z,820
2017-11-15T07:23:59.034Z,840
2017-11-15T07:24:29.559Z,873
2017-11-15T07:24:59.154Z,917
2017-11-15T07:25:29.137Z,943
2017-11-15T07:25:59.211Z,967
2017-11-15T07:26:29.217Z,990
2017-11-15T07:26:59.258Z,1027
2017-11-15T07:27:29.287Z,1050
2017-11-15T07:27:59.320Z,1073
2017-11-15T07:28:29.325Z,1060
2017-11-15T07:28:59.375Z,1033
2017-11-15T07:29:29.640Z,1043
2017-11-15T07:29:59.442Z,1047
2017-11-15T07:30:29.468Z,1027
2017-11-15T07:30:59.480Z,1000
2017-11-15T07:31:29.512Z,963
2017-11-15T07:31:59.538Z,930
2017-11-15T07:32:29.593Z,923
2017-11-15T07:32:59.606Z,927
2017-11-15T07:33:29.607Z,950
2017-11-15T07:33:59.638Z,987
2017-11-15T07:34:29.765Z,1017
2017-11-15T07:34:59.716Z,1027
2017-11-15T07:35:29.720Z,1010
2017-11-15T07:35:59.767Z,993
2017-11-15T07:36:29.793Z,973
2017-11-15T07:36:59.827Z,957
2017-11-15T07:37:29.837Z,950
2017-11-15T07:37:59.891Z,927
2017-11-15T07:38:29.902Z,900
2017-11-15T07:38:59.952Z,863
2017-11-15T07:39:30.022Z,840
2017-11-15T07:40:00.039Z,820
2017-11-15T07:40:30.029Z,797
2017-11-15T07:41:00.069Z,783
2017-11-15T07:41:30.092Z,767
2017-11-15T07:42:00.152Z,747
2017-11-15T07:42:30.227Z,727
2017-11-15T07:43:00.215Z,700
2017-11-15T07:43:30.221Z,690
2017-11-15T07:44:00.748Z,677
2017-11-15T07:44:30.313Z,663
2017-11-15T07:45:00.864Z,647
2017-11-15T07:45:30.353Z,637
2017-11-15T07:46:00.945Z,617
2017-11-15T07:46:30.436Z,603
2017-11-15T07:47:00.777Z,597
2017-11-15T07:48:00.915Z,603
2017-11-15T07:48:30.520Z,627
2017-11-15T07:49:00.606Z,643
2017-11-15T07:49:30.667Z,670
2017-11-15T07:50:00.749Z,693
2017-11-15T07:50:30.637Z,723
2017-11-15T07:51:00.897Z,750
2017-11-15T07:51:30.699Z,770
2017-11-15T07:52:00.785Z,790
2017-11-15T07:52:30.783Z,807
2017-11-15T07:53:00.944Z,823
2017-11-15T07:53:30.876Z,837
2017-11-15T07:54:00.896Z,830
2017-11-15T07:54:30.962Z,827
2017-11-15T07:55:00.948Z,807
2017-11-15T07:55:30.944Z,797
2017-11-15T07:56:00.993Z,800
2017-11-15T07:56:31.009Z,810
2017-11-15T07:57:01.075Z,813
2017-11-15T07:58:01.126Z,807
2017-11-15T07:58:31.159Z,800
2017-11-15T07:59:01.230Z,787
2017-11-15T07:59:31.200Z,790
2017-11-15T08:00:01.546Z,777
2017-11-15T08:00:31.259Z,750
2017-11-15T08:01:01.339Z,723
2017-11-15T08:04:31.576Z,770
2017-11-15T08:05:01.625Z,797
2017-11-15T08:05:31.703Z,820
2017-11-15T08:06:01.671Z,853
2017-11-15T08:06:31.688Z,903
2017-11-15T08:07:01.792Z,950
2017-11-15T08:07:31.790Z,983
2017-11-15T08:08:02.342Z,1017
2017-11-15T08:08:31.784Z,1060
2017-11-15T08:09:01.810Z,1137
2017-11-15T08:09:31.855Z,1263
2017-11-15T08:10:01.920Z,1397
2017-11-15T08:10:31.905Z,1500
2017-11-15T08:11:01.977Z,1560
2017-11-15T08:11:31.977Z,1587
2017-11-15T08:12:32.061Z,1593
2017-11-15T08:13:02.107Z,1600
2017-11-15T08:13:32.085Z,1590
2017-11-15T08:14:02.201Z,1563
2017-11-15T08:14:32.172Z,1523
2017-11-15T08:15:02.270Z,1533
2017-11-15T08:15:32.225Z,1523
2017-11-15T08:16:02.290Z,1457
2017-11-15T08:16:32.288Z,1397
2017-11-15T08:17:32.376Z,1410
2017-11-15T08:18:02.373Z,1440
2017-11-15T08:18:32.393Z,1460
2017-11-15T08:19:02.417Z,1490
2017-11-15T08:19:32.469Z,1523
2017-11-15T08:20:02.576Z,1553
2017-11-15T08:20:32.516Z,1610
2017-11-15T08:21:02.576Z,1683
2017-11-15T08:21:32.567Z,1720
2017-11-15T08:22:02.658Z,1717
2017-11-15T08:22:32.642Z,1683
2017-11-15T08:23:02.748Z,1663
2017-11-15T08:23:32.700Z,1687
2017-11-15T08:24:02.774Z,1730
2017-11-15T08:24:32.736Z,1750
2017-11-15T08:25:02.822Z,1743
2017-11-15T08:25:32.783Z,1757
2017-11-15T08:26:02.828Z,1753
2017-11-15T08:26:32.843Z,1723
2017-11-15T08:27:02.893Z,1707
2017-11-15T08:27:32.906Z,1680
2017-11-15T08:28:02.952Z,1663
2017-11-15T08:28:32.964Z,1667
2017-11-15T08:29:03.085Z,1677
2017-11-15T08:29:33.027Z,1687
2017-11-15T08:30:03.171Z,1680
2017-11-15T08:30:33.134Z,1687
2017-11-15T08:31:03.144Z,1720
2017-11-15T08:31:33.160Z,1823
2017-11-15T08:32:03.246Z,2003
2017-11-15T08:32:33.278Z,2290
2017-11-15T08:33:03.258Z,2460
2017-11-15T08:33:33.330Z,2540
2017-11-15T08:34:03.394Z,2627
2017-11-15T08:34:33.393Z,2737
2017-11-15T08:35:03.484Z,2817
2017-11-15T08:35:33.410Z,3027
2017-11-15T08:36:03.500Z,3473
2017-11-15T08:36:33.495Z,3563
2017-11-15T08:37:03.559Z,3587
2017-11-15T08:37:33.562Z,3550
2017-11-15T08:38:03.589Z,3413
2017-11-15T08:38:33.592Z,3180
2017-11-15T08:39:03.647Z,2990
2017-11-15T08:39:33.653Z,3003
2017-11-15T08:40:03.749Z,3057
2017-11-15T08:40:33.795Z,3117
2017-11-15T08:41:03.769Z,3053
2017-11-15T08:41:33.808Z,2903
2017-11-15T08:42:03.821Z,2857
2017-11-15T08:42:33.829Z,3140
2017-11-15T08:43:03.986Z,3563
2017-11-15T08:43:33.887Z,3663
2017-11-15T08:44:03.992Z,3493
2017-11-15T08:44:33.950Z,3380
2017-11-15T08:45:04.054Z,3493
2017-11-15T08:45:34.095Z,3487
2017-11-15T08:46:04.074Z,3460
2017-11-15T08:46:34.128Z,3473
2017-11-15T08:47:04.114Z,3630
2017-11-15T08:47:34.134Z,3650
2017-11-15T08:48:04.223Z,3557
2017-11-15T08:48:34.212Z,3330
2017-11-15T08:49:04.307Z,3253
2017-11-15T08:49:34.306Z,3303
2017-11-15T08:50:04.376Z,3347
2017-11-15T08:50:34.350Z,3513
2017-11-15T08:51:04.397Z,3637
2017-11-15T08:51:34.439Z,3757
2017-11-15T08:52:04.473Z,3877
2017-11-15T08:52:34.503Z,4220
2017-11-15T08:53:04.483Z,4560
2017-11-15T08:53:34.526Z,4867
2017-11-15T08:54:04.558Z,5133
2017-11-15T08:54:34.650Z,5483
2017-11-15T08:55:04.738Z,6123
2017-11-15T08:55:34.699Z,6653
2017-11-15T08:56:04.748Z,6820
2017-11-15T08:56:34.742Z,6223
2017-11-15T08:57:04.757Z,5240
2017-11-15T08:57:34.780Z,4123
2017-11-15T08:58:04.797Z,3267
2017-11-15T08:58:34.857Z,2867
2017-11-15T08:59:04.929Z,2627
2017-11-15T08:59:34.922Z,2503
2017-11-15T09:00:05.026Z,2413
2017-11-15T09:00:34.987Z,2340
2017-11-15T09:01:05.040Z,2363
2017-11-15T09:01:35.032Z,2413
2017-11-15T09:02:05.074Z,2490
2017-11-15T09:02:35.076Z,2590
2017-11-15T09:03:05.101Z,2713
2017-11-15T09:03:35.153Z,2810
2017-11-15T09:04:05.247Z,2917
2017-11-15T09:04:35.215Z,2990
2017-11-15T09:05:05.333Z,3057
2017-11-15T09:05:35.239Z,3083
2017-11-15T09:06:05.325Z,2997
2017-11-15T09:06:35.371Z,2890
2017-11-15T09:07:05.401Z,2830
2017-11-15T09:07:35.385Z,2813
2017-11-15T09:08:05.478Z,2783
2017-11-15T09:08:35.495Z,2753
2017-11-15T09:09:05.534Z,2767
2017-11-15T09:09:35.552Z,2763
2017-11-15T09:10:05.660Z,2757
2017-11-15T09:10:35.611Z,2727
2017-11-15T09:11:05.606Z,2710
2017-11-15T09:11:35.608Z,2737
2017-11-15T09:12:05.662Z,2777
2017-11-15T09:12:35.696Z,2827
2017-11-15T09:13:05.722Z,2883
2017-11-15T09:13:35.732Z,2953
2017-11-15T09:14:05.831Z,3013
2017-11-15T09:14:35.799Z,3157
2017-11-15T09:15:05.908Z,3333
2017-11-15T09:15:35.860Z,3487
2017-11-15T09:16:05.954Z,3657
2017-11-15T09:16:35.915Z,3877
2017-11-15T09:17:05.970Z,4057
2017-11-15T09:17:35.982Z,4253
2017-11-15T09:18:06.021Z,4353
2017-11-15T09:18:36.077Z,4480
2017-11-15T09:19:06.103Z,4640
2017-11-15T09:19:36.101Z,4693
2017-11-15T09:20:06.213Z,4757
2017-11-15T09:20:36.176Z,4780
2017-11-15T09:21:06.266Z,4920
2017-11-15T09:21:36.268Z,5130
2017-11-15T09:22:06.334Z,5257
2017-11-15T09:22:36.308Z,5290
2017-11-15T09:23:06.412Z,5327
2017-11-15T09:23:36.403Z,5390
2017-11-15T09:24:06.408Z,5413
2017-11-15T09:24:36.447Z,5537
2017-11-15T09:25:06.537Z,5680
2017-11-15T09:25:36.578Z,5717
2017-11-15T09:26:06.522Z,5803
2017-11-15T09:26:36.530Z,5947
2017-11-15T09:27:06.627Z,6087
2017-11-15T09:27:36.609Z,6130
2017-11-15T09:28:06.673Z,6320
2017-11-15T09:28:36.664Z,6500
2017-11-15T09:29:06.756Z,6427
2017-11-15T09:29:36.716Z,6360
2017-11-15T09:30:08.282Z,6527
2017-11-15T09:30:36.780Z,6510
2017-11-15T09:31:06.825Z,6430
2017-11-15T09:31:36.844Z,6387
2017-11-15T09:32:06.888Z,6367
2017-11-15T09:32:36.903Z,6257
2017-11-15T09:33:06.968Z,6090
2017-11-15T09:33:36.962Z,5993
2017-11-15T09:34:07.008Z,5923
2017-11-15T09:34:37.024Z,5857
2017-11-15T09:35:07.128Z,6170
2017-11-15T09:35:37.084Z,5950
2017-11-15T09:36:07.138Z,5883
2017-11-15T09:36:37.182Z,5813
2017-11-15T09:37:07.252Z,5847
2017-11-15T09:37:37.213Z,6187
2017-11-15T09:38:07.279Z,7050
2017-11-15T09:38:37.306Z,8450
2017-11-15T09:39:07.371Z,10693
2017-11-15T09:39:37.333Z,9063
2017-11-15T09:40:07.438Z,7380
2017-11-15T09:40:37.420Z,7050
2017-11-15T09:41:07.506Z,7490
2017-11-15T09:41:37.499Z,10347
2017-11-15T09:42:07.549Z,9817
2017-11-15T09:42:37.579Z,9623
2017-11-15T09:43:07.633Z,10390
2017-11-15T09:43:37.616Z,11020
2017-11-15T09:44:07.678Z,11930
2017-11-15T09:44:37.703Z,13007
2017-11-15T09:45:07.782Z,13030
2017-11-15T09:45:37.775Z,14420
2017-11-15T09:46:07.816Z,14330
2017-11-15T09:46:37.817Z,15743
2017-11-15T09:47:07.830Z,13253
2017-11-15T09:47:37.873Z,11447
2017-11-15T09:48:07.938Z,12040
2017-11-15T09:48:37.907Z,18843
2017-11-15T09:49:07.970Z,15603
2017-11-15T09:49:37.948Z,9300
2017-11-15T09:50:08.113Z,12043
2017-11-15T09:50:38.012Z,10417
2017-11-15T09:51:08.109Z,10080
2017-11-15T09:51:38.066Z,7907
2017-11-15T09:52:08.142Z,8320
2017-11-15T09:52:38.159Z,9010
2017-11-15T09:53:08.231Z,10900
2017-11-15T09:53:38.270Z,12690
2017-11-15T09:54:08.301Z,11573
2017-11-15T09:54:38.319Z,10140
2017-11-15T09:55:08.378Z,9363
2017-11-15T09:55:38.391Z,9600
2017-11-15T09:56:08.420Z,11913
2017-11-15T09:56:38.419Z,10813
2017-11-15T09:57:08.453Z,8967
2017-11-15T09:57:38.504Z,8447
2017-11-15T09:58:08.531Z,8137
2017-11-15T09:58:38.532Z,8050
2017-11-15T09:59:08.582Z,8393
2017-11-15T09:59:38.565Z,8193
2017-11-15T10:00:08.643Z,8370
2017-11-15T10:00:38.902Z,8247
2017-11-15T10:01:08.687Z,8423
2017-11-15T10:01:38.683Z,8767
2017-11-15T10:02:08.741Z,8250
2017-11-15T10:02:38.751Z,8260
2017-11-15T10:03:08.793Z,8340
2017-11-15T10:03:38.848Z,8370
2017-11-15T10:04:08.853Z,8147
2017-11-15T10:04:38.870Z,8277
2017-11-15T10:05:08.920Z,8320
2017-11-15T10:05:38.960Z,8103
2017-11-15T10:06:08.986Z,8030
2017-11-15T10:06:39.005Z,7930
2017-11-15T10:07:09.051Z,7423
2017-11-15T10:07:39.109Z,7583
2017-11-15T10:08:09.109Z,8073
2017-11-15T10:08:39.124Z,7420
2017-11-15T10:09:09.230Z,7230
2017-11-15T10:09:39.219Z,7317
2017-11-15T10:10:09.225Z,7390
2017-11-15T10:10:39.298Z,7450
2017-11-15T10:11:09.344Z,7690
2017-11-15T10:11:39.343Z,7767
2017-11-15T10:12:09.423Z,8217
2017-11-15T10:12:39.386Z,8600
2017-11-15T10:13:09.458Z,8800
2017-11-15T10:13:39.437Z,8687
2017-11-15T10:14:09.537Z,8257
2017-11-15T10:14:39.555Z,8063
2017-11-15T10:15:09.570Z,7743
2017-11-15T10:15:39.585Z,7453
2017-11-15T10:16:09.642Z,7253
2017-11-15T10:16:39.661Z,7200
2017-11-15T10:17:09.697Z,6613
2017-11-15T10:17:39.674Z,6580
2017-11-15T10:18:09.718Z,6050
2017-11-15T10:18:39.823Z,5730
2017-11-15T10:19:09.792Z,5467
2017-11-15T10:19:39.798Z,5410
2017-11-15T10:20:09.850Z,5413
2017-11-15T10:20:39.867Z,5487
2017-11-15T10:21:09.906Z,5827
2017-11-15T10:21:39.968Z,5967
2017-11-15T10:22:09.970Z,6020
2017-11-15T10:22:39.988Z,5903
2017-11-15T10:23:10.041Z,5797
2017-11-15T10:23:40.061Z,5920
2017-11-15T10:24:10.087Z,6237
2017-11-15T10:24:40.105Z,6517
2017-11-15T10:25:10.211Z,6473
2017-11-15T10:25:40.187Z,6107
2017-11-15T10:26:10.212Z,5773
2017-11-15T10:26:40.278Z,5937
2017-11-15T10:27:10.275Z,6447
2017-11-15T10:27:40.321Z,7010
2017-11-15T10:28:10.387Z,7410
2017-11-15T10:28:40.354Z,7680
2017-11-15T10:29:10.485Z,7853
2017-11-15T10:29:40.410Z,7987
2017-11-15T10:30:10.517Z,9170
2017-11-15T10:30:40.493Z,10077
2017-11-15T10:31:10.577Z,8343
2017-11-15T10:31:40.613Z,9080
2017-11-15T10:32:10.629Z,17930
2017-11-15T10:32:40.643Z,8047
2017-11-15T10:33:10.675Z,6860
2017-11-15T10:33:40.655Z,6530
2017-11-15T10:34:10.756Z,6407
2017-11-15T10:34:40.748Z,7157
2017-11-15T10:35:10.815Z,6967
2017-11-15T10:35:40.795Z,6530
2017-11-15T10:36:10.860Z,6540
2017-11-15T10:36:40.918Z,6733
2017-11-15T10:37:10.921Z,7067
2017-11-15T10:37:40.921Z,7970
2017-11-15T10:38:11.005Z,10777
2017-11-15T10:38:41.015Z,16720
2017-11-15T10:39:11.081Z,13033
2017-11-15T10:39:41.069Z,10023
2017-11-15T10:40:11.276Z,9920
2017-11-15T10:40:41.161Z,12750
2017-11-15T10:41:11.175Z,15567
2017-11-15T10:41:41.195Z,8943
2017-11-15T10:42:11.280Z,9960
2017-11-15T10:42:41.277Z,12567
2017-11-15T10:43:11.261Z,9383
2017-11-15T10:43:41.288Z,7410
2017-11-15T10:44:11.410Z,7653
2017-11-15T10:44:41.375Z,9717
2017-11-15T10:45:11.397Z,10970
2017-11-15T10:45:41.435Z,8473
2017-11-15T10:46:11.556Z,9950
2017-11-15T10:46:41.497Z,7160
2017-11-15T10:47:11.524Z,7040
2017-11-15T10:47:41.568Z,6420
2017-11-15T10:48:11.570Z,7553
2017-11-15T10:48:41.580Z,6753
2017-11-15T10:49:11.690Z,6980
2017-11-15T10:49:41.652Z,8347
2017-11-15T10:50:11.692Z,8503
2017-11-15T10:50:41.732Z,8577
2017-11-15T10:51:11.801Z,8887
2017-11-15T10:51:41.760Z,8430
2017-11-15T10:52:11.818Z,8803
2017-11-15T10:52:41.828Z,10037
2017-11-15T10:53:11.957Z,9883
2017-11-15T10:53:41.929Z,12367
2017-11-15T10:54:11.978Z,14710
2017-11-15T10:54:41.950Z,14507
2017-11-15T10:55:12.025Z,17547
2017-11-15T10:55:42.025Z,13183
2017-11-15T10:56:12.121Z,12217
2017-11-15T10:56:42.081Z,11347
2017-11-15T10:57:12.128Z,14150
2017-11-15T10:57:42.177Z,11423
2017-11-15T10:58:12.197Z,14027
2017-11-15T10:58:42.232Z,11683
2017-11-15T10:59:12.300Z,10000
2017-11-15T10:59:42.317Z,10567
2017-11-15T11:00:12.321Z,9940
2017-11-15T11:00:42.347Z,10923
2017-11-15T11:01:12.479Z,12473
2017-11-15T11:01:42.384Z,16797
2017-11-15T11:02:12.474Z,13740
2017-11-15T11:02:42.497Z,12337
2017-11-15T11:03:12.511Z,8663
2017-11-15T11:03:42.520Z,8157
2017-11-15T11:04:12.581Z,6500
2017-11-15T11:04:42.598Z,6017
2017-11-15T11:05:12.631Z,5553
2017-11-15T11:05:42.679Z,5403
2017-11-15T11:06:12.821Z,5617
2017-11-15T11:06:42.728Z,5940
2017-11-15T11:07:12.733Z,6213
2017-11-15T11:07:42.789Z,6673
2017-11-15T11:08:12.850Z,7003
2017-11-15T11:08:42.919Z,7203
2017-11-15T11:09:12.909Z,7393
2017-11-15T11:09:42.883Z,8417
2017-11-15T11:10:12.926Z,8623
2017-11-15T11:10:42.938Z,9173
2017-11-15T11:11:13.055Z,7420
2017-11-15T11:11:42.992Z,6527
2017-11-15T11:12:13.040Z,6313
2017-11-15T11:12:43.084Z,5983
2017-11-15T11:13:13.101Z,6003
2017-11-15T11:13:43.113Z,6130
2017-11-15T11:14:13.203Z,6320
2017-11-15T11:14:43.248Z,6597
2017-11-15T11:15:13.268Z,6810
2017-11-15T11:15:43.280Z,6963
2017-11-15T11:16:13.361Z,7140
2017-11-15T11:16:43.308Z,7283
2017-11-15T11:17:13.391Z,7233
2017-11-15T11:17:43.429Z,7110
2017-11-15T11:18:13.440Z,6683
2017-11-15T11:18:43.479Z,7670
2017-11-15T11:19:13.485Z,7667
2017-11-15T11:19:43.519Z,8293
2017-11-15T11:20:13.572Z,8290
2017-11-15T11:20:43.576Z,9370
2017-11-15T11:21:13.681Z,10417
2017-11-15T11:21:43.688Z,10967
2017-11-15T11:22:13.759Z,10253
2017-11-15T11:22:43.854Z,12277
2017-11-15T11:23:13.736Z,12700
2017-11-15T11:23:43.772Z,14413
2017-11-15T11:24:13.831Z,14467
2017-11-15T11:24:43.931Z,16317
2017-11-15T11:25:13.923Z,14200
2017-11-15T11:25:43.912Z,15400
2017-11-15T11:26:13.986Z,15453
2017-11-15T11:26:43.969Z,18773
2017-11-15T11:27:13.968Z,20700
2017-11-15T11:27:44.049Z,12800
2017-11-15T11:28:14.087Z,13750
2017-11-15T11:28:44.041Z,18673
2017-11-15T11:29:14.204Z,22080
2017-11-15T11:29:44.180Z,20373
2017-11-15T11:30:14.194Z,16497
2017-11-15T11:30:44.239Z,15377
2017-11-15T11:31:14.278Z,12063
2017-11-15T11:31:44.268Z,12290
2017-11-15T11:32:14.269Z,11663
2017-11-15T11:32:44.293Z,17017
2017-11-15T11:33:14.389Z,11020
2017-11-15T11:33:44.374Z,10000
2017-11-15T11:34:14.417Z,9967
2017-11-15T11:34:44.409Z,11387
2017-11-15T11:35:14.501Z,18300
2017-11-15T11:35:44.492Z,13060
2017-11-15T11:36:14.549Z,19560
2017-11-15T11:36:44.565Z,18363
2017-11-15T11:37:14.623Z,18447
2017-11-15T11:37:44.595Z,15023
2017-11-15T11:38:14.636Z,20657
2017-11-15T11:38:44.692Z,24550
2017-11-15T11:39:14.731Z,24803
2017-11-15T11:39:44.775Z,24180
2017-11-15T11:40:14.763Z,24017
2017-11-15T11:40:44.779Z,17160
2017-11-15T11:41:14.883Z,21687
2017-11-15T11:41:44.858Z,21813
2017-11-15T11:42:14.896Z,24360
2017-11-15T11:42:44.906Z,21557
2017-11-15T11:43:14.950Z,17673
2017-11-15T11:43:44.969Z,22843
2017-11-15T11:44:15.073Z,15853
2017-11-15T11:44:45.035Z,10637
2017-11-15T11:45:15.100Z,9883
2017-11-15T11:45:45.110Z,9830
2017-11-15T11:46:15.167Z,12793
2017-11-15T11:46:45.173Z,12053
2017-11-15T11:47:15.262Z,9513
2017-11-15T11:47:45.257Z,9587
2017-11-15T11:48:15.267Z,9663
2017-11-15T11:48:45.322Z,15060
2017-11-15T11:49:15.405Z,18643
2017-11-15T11:49:45.336Z,23947
2017-11-15T11:50:15.403Z,23403
2017-11-15T11:50:45.429Z,24460
2017-11-15T11:51:15.536Z,24413
2017-11-15T11:51:45.505Z,24503
2017-11-15T11:52:15.557Z,25013
2017-11-15T11:52:45.600Z,25377
2017-11-15T11:53:15.597Z,25603
2017-11-15T11:53:45.652Z,25670
2017-11-15T11:54:15.679Z,19383
2017-11-15T11:54:45.680Z,24243
2017-11-15T11:55:15.722Z,22547
2017-11-15T11:55:45.730Z,24357
2017-11-15T11:56:15.787Z,23917
2017-11-15T11:56:45.794Z,13053
2017-11-15T11:57:15.830Z,13977
2017-11-15T11:57:45.841Z,18537
2017-11-15T11:58:15.882Z,12250
2017-11-15T11:58:45.906Z,13197
2017-11-15T11:59:16.003Z,12273
2017-11-15T11:59:45.968Z,21593
2017-11-15T12:00:16.061Z,17283
2017-11-15T12:00:46.046Z,16230
2017-11-15T12:01:16.126Z,21540
2017-11-15T12:01:46.085Z,13440
2017-11-15T12:02:16.157Z,16640
2017-11-15T12:02:46.189Z,15977
2017-11-15T12:03:16.200Z,13773
2017-11-15T12:03:46.225Z,13520
2017-11-15T12:04:16.310Z,15903
2017-11-15T12:04:46.334Z,12037
2017-11-15T12:05:16.317Z,9897
2017-11-15T12:05:46.364Z,9023
2017-11-15T12:06:16.504Z,10950
2017-11-15T12:06:46.418Z,11987
2017-11-15T12:07:16.515Z,9320
2017-11-15T12:07:46.471Z,9490
2017-11-15T12:08:16.589Z,10360
2017-11-15T12:08:46.583Z,10053
2017-11-15T12:09:16.628Z,8853
2017-11-15T12:09:46.655Z,8220
2017-11-15T12:10:16.662Z,8870
2017-11-15T12:10:46.691Z,9040
2017-11-15T12:11:16.804Z,9543
2017-11-15T12:11:46.773Z,10377
2017-11-15T12:12:16.820Z,13650
2017-11-15T12:12:46.781Z,16330
2017-11-15T12:13:16.848Z,12630
2017-11-15T12:13:46.887Z,11990
2017-11-15T12:14:16.978Z,16347
2017-11-15T12:14:46.968Z,17243
2017-11-15T12:15:16.971Z,9603
2017-11-15T12:15:47.036Z,12987
2017-11-15T12:16:17.062Z,9723
2017-11-15T12:16:47.084Z,9297
2017-11-15T12:17:17.120Z,9833
2017-11-15T12:17:47.097Z,9653
2017-11-15T12:18:17.204Z,10950
2017-11-15T12:18:47.210Z,9947
2017-11-15T12:19:17.221Z,11650
2017-11-15T12:19:47.267Z,12063
2017-11-15T12:20:17.276Z,13580
2017-11-15T12:20:47.335Z,7557
2017-11-15T12:21:17.377Z,7030
2017-11-15T12:21:47.465Z,6697
2017-11-15T12:22:17.393Z,7080
2017-11-15T12:22:47.446Z,6123
2017-11-15T12:23:17.453Z,5843
2017-11-15T12:23:47.452Z,5497
2017-11-15T12:24:17.497Z,5167
2017-11-15T12:24:47.515Z,4957
2017-11-15T12:25:47.607Z,4737
2017-11-15T12:26:17.624Z,4460
2017-11-15T12:26:49.167Z,4263
2017-11-15T12:27:17.690Z,4080
2017-11-15T12:27:47.693Z,4197
2017-11-15T12:28:17.787Z,4177
2017-11-15T12:28:47.765Z,3870
2017-11-15T12:29:17.884Z,3840
2017-11-15T12:29:47.814Z,3917
2017-11-15T12:30:17.869Z,3970
2017-11-15T12:30:47.902Z,4000
2017-11-15T12:31:17.922Z,4013
2017-11-15T12:31:47.957Z,4077
2017-11-15T12:32:17.999Z,4130
2017-11-15T12:32:47.997Z,4200
2017-11-15T12:33:18.044Z,4230
2017-11-15T12:33:48.064Z,4213
2017-11-15T12:34:18.110Z,4203
2017-11-15T12:34:48.135Z,4150
2017-11-15T12:35:18.161Z,4197
2017-11-15T12:35:48.238Z,4353
2017-11-15T12:36:18.229Z,4360
2017-11-15T12:36:48.533Z,4490
2017-11-15T12:37:18.352Z,4677
2017-11-15T12:37:48.762Z,4847
2017-11-15T12:38:18.368Z,5007
2017-11-15T12:38:48.418Z,5123
2017-11-15T12:39:18.459Z,5233
2017-11-15T12:39:48.465Z,5277
2017-11-15T12:40:18.533Z,5283
2017-11-15T12:40:48.525Z,5243
2017-11-15T12:41:18.544Z,5200
2017-11-15T12:41:48.587Z,5140
2017-11-15T12:42:18.601Z,5077
2017-11-15T12:42:48.643Z,5047
2017-11-15T12:43:18.683Z,5030
2017-11-15T12:43:48.691Z,5020
2017-11-15T12:44:18.787Z,4953
2017-11-15T12:44:48.743Z,4890
2017-11-15T12:45:18.783Z,4807
2017-11-15T12:45:48.803Z,4713
2017-11-15T12:46:18.856Z,4617
2017-11-15T12:46:48.865Z,4507
2017-11-15T12:47:18.941Z,4407
2017-11-15T12:47:48.923Z,4357
2017-11-15T12:48:18.966Z,4343
2017-11-15T12:48:48.981Z,4323
2017-11-15T12:49:19.030Z,4307
2017-11-15T12:50:19.093Z,4300
2017-11-15T12:50:49.104Z,4293
2017-11-15T12:51:19.175Z,4280
2017-11-15T12:51:49.163Z,4267
2017-11-15T12:52:19.250Z,4253
2017-11-15T12:52:49.268Z,4233
2017-11-15T12:53:19.272Z,4193
2017-11-15T12:53:49.365Z,4143
2017-11-15T12:54:19.332Z,4067
2017-11-15T12:54:49.398Z,4013
2017-11-15T12:55:19.410Z,3960
2017-11-15T12:55:49.414Z,3933
2017-11-15T12:56:19.492Z,3893
2017-11-15T12:56:49.503Z,3873
2017-11-15T12:57:19.628Z,3927
2017-11-15T12:57:49.596Z,4037
2017-11-15T12:58:19.628Z,4207
2017-11-15T12:58:49.661Z,4343
2017-11-15T12:59:19.705Z,4287
2017-11-15T12:59:49.705Z,4303
2017-11-15T13:00:19.736Z,4300
2017-11-15T13:00:49.753Z,4360
2017-11-15T13:01:19.807Z,4447
2017-11-15T13:01:49.845Z,4557
2017-11-15T13:02:19.909Z,4690
2017-11-15T13:02:50.464Z,4827
2017-11-15T13:03:19.917Z,5013
2017-11-15T13:03:49.964Z,5190
2017-11-15T13:04:19.973Z,5373
2017-11-15T13:04:50.015Z,5553
2017-11-15T13:05:20.061Z,5697
2017-11-15T13:05:50.026Z,5850
2017-11-15T13:06:20.148Z,5927
2017-11-15T13:06:50.103Z,5983
2017-11-15T13:07:20.172Z,5943
2017-11-15T13:08:20.338Z,5957
2017-11-15T13:08:50.279Z,5827
2017-11-15T13:09:20.279Z,5717
2017-11-15T13:09:50.344Z,5573
2017-11-15T13:10:20.337Z,5513
2017-11-15T13:10:50.396Z,5540
2017-11-15T13:11:20.382Z,5603
2017-11-15T13:11:50.398Z,5597
2017-11-15T13:12:20.454Z,5523
2017-11-15T13:12:50.517Z,5437
2017-11-15T13:13:20.576Z,5357
2017-11-15T13:13:50.597Z,5323
2017-11-15T13:14:20.620Z,5287
2017-11-15T13:14:50.613Z,5200
2017-11-15T13:15:20.641Z,5110
2017-11-15T13:15:50.715Z,5037
2017-11-15T13:16:20.742Z,4990
2017-11-15T13:16:50.728Z,4963
2017-11-15T13:17:20.766Z,4953
2017-11-15T13:17:50.824Z,4963
2017-11-15T13:18:20.871Z,4937
2017-11-15T13:18:50.844Z,4913
2017-11-15T13:19:20.890Z,4943
2017-11-15T13:19:50.907Z,5137
2017-11-15T13:20:20.979Z,5257
2017-11-15T13:20:50.969Z,4943
2017-11-15T13:21:21.094Z,4803
2017-11-15T13:21:51.028Z,4723
2017-11-15T13:22:21.142Z,4693
2017-11-15T13:23:21.268Z,4787
2017-11-15T13:23:51.148Z,4880
2017-11-15T13:24:21.207Z,4740
2017-11-15T13:24:51.253Z,4590
2017-11-15T13:25:21.344Z,4517